createdAt,value
2022-11-15T00:00:26.489Z,7.83
2022-11-15T00:03:15.712Z,6.30
2022-11-15T00:06:04.375Z,6.83
2022-11-15T00:08:51.614Z,9.97
2022-11-15T00:11:39.467Z,10.80
2022-11-15T00:14:25.972Z,6.83
2022-11-15T00:17:12.554Z,9.83
2022-11-15T00:19:59.053Z,5.73
2022-11-15T00:22:45.703Z,9.90
2022-11-15T00:25:32.450Z,8.70
2022-11-15T00:28:20.208Z,9.83
2022-11-15T00:31:11.163Z,7.27
2022-11-15T00:33:57.423Z,8.13
2022-11-15T00:36:44.128Z,7.90
2022-11-15T00:39:30.600Z,6.60
2022-11-15T00:42:17.148Z,9.10
2022-11-15T00:45:05.611Z,9.53
2022-11-15T00:47:52.387Z,7.87
2022-11-15T00:50:39.030Z,11.83
2022-11-15T00:53:25.743Z,15.33
2022-11-15T00:56:12.236Z,22.40
2022-11-15T00:58:58.978Z,16.67
2022-11-15T01:01:46.956Z,15.03
2022-11-15T01:04:33.225Z,14.03
2022-11-15T01:07:19.898Z,11.43
2022-11-15T01:10:07.672Z,12.43
2022-11-15T01:12:54.300Z,12.00
2022-11-15T01:15:42.303Z,12.87
2022-11-15T01:18:29.960Z,11.67
2022-11-15T01:21:19.678Z,10.83
2022-11-15T01:24:06.945Z,8.97
2022-11-15T01:26:53.401Z,8.83
2022-11-15T01:29:39.736Z,8.23
2022-11-15T01:32:26.295Z,8.70
2022-11-15T01:35:14.162Z,7.90
2022-11-15T01:38:00.939Z,6.97
2022-11-15T01:40:47.590Z,5.27
2022-11-15T01:43:36.938Z,6.33
2022-11-15T01:46:31.754Z,6.33
2022-11-15T01:49:21.402Z,6.80
2022-11-15T01:52:13.345Z,6.20
2022-11-15T01:55:06.775Z,4.97
2022-11-15T01:57:56.566Z,5.87
2022-11-15T02:00:42.955Z,6.10
2022-11-15T02:03:37.565Z,6.60
2022-11-15T02:06:24.654Z,5.60
2022-11-15T02:09:13.411Z,6.97
2022-11-15T02:12:01.389Z,11.40
2022-11-15T02:14:54.189Z,7.13
2022-11-15T02:17:54.754Z,5.23
2022-11-15T02:21:12.544Z,9.80
2022-11-15T02:24:24.473Z,8.53
2022-11-15T02:27:40.155Z,14.67
2022-11-15T02:30:35.807Z,9.13
2022-11-15T02:33:34.791Z,13.43
2022-11-15T02:36:32.746Z,12.17
2022-11-15T02:39:27.634Z,10.57
2022-11-15T02:42:37.950Z,9.67
2022-11-15T02:45:31.275Z,8.10
2022-11-15T02:48:18.882Z,9.07
2022-11-15T02:51:06.130Z,8.50
2022-11-15T02:53:52.627Z,10.60
2022-11-15T02:56:39.304Z,9.10
2022-11-15T02:59:46.206Z,10.43
2022-11-15T03:02:44.606Z,7.83
2022-11-15T03:05:37.364Z,7.70
2022-11-15T03:08:31.316Z,9.63
2022-11-15T03:11:19.638Z,9.53
2022-11-15T03:14:19.223Z,6.63
2022-11-15T03:17:15.982Z,6.13
2022-11-15T03:20:06.964Z,6.87
2022-11-15T03:22:55.317Z,9.73
2022-11-15T03:25:47.769Z,4.70
2022-11-15T03:28:38.391Z,5.47
2022-11-15T03:31:49.747Z,7.80
2022-11-15T03:34:43.423Z,4.87
2022-11-15T03:37:37.052Z,4.33
2022-11-15T03:40:29.826Z,5.80
2022-11-15T03:43:24.927Z,5.77
2022-11-15T03:46:17.274Z,6.63
2022-11-15T03:49:09.617Z,4.77
2022-11-15T03:51:59.304Z,4.50
2022-11-15T03:54:52.908Z,17.00
2022-11-15T03:57:39.331Z,11.03
2022-11-15T04:00:26.188Z,9.83
2022-11-15T04:03:12.617Z,10.83
2022-11-15T04:05:59.679Z,12.57
2022-11-15T04:08:46.334Z,9.93
2022-11-15T04:11:34.270Z,6.23
2022-11-15T04:14:20.749Z,5.57
2022-11-15T04:17:07.351Z,5.23
2022-11-15T04:20:11.896Z,4.03
2022-11-15T04:23:17.469Z,7.13
2022-11-15T04:26:06.544Z,4.53
2022-11-15T04:29:12.020Z,4.87
2022-11-15T04:31:58.985Z,3.83
2022-11-15T04:34:45.375Z,3.93
2022-11-15T04:37:32.006Z,3.50
2022-11-15T04:40:18.610Z,6.80
2022-11-15T04:43:05.494Z,5.37
2022-11-15T04:45:53.071Z,6.63
2022-11-15T04:48:39.792Z,5.63
2022-11-15T04:51:26.421Z,10.03
2022-11-15T04:54:13.305Z,8.23
2022-11-15T04:57:00.231Z,8.53
2022-11-15T04:59:46.640Z,5.80
2022-11-15T05:02:48.882Z,4.80
2022-11-15T05:05:35.159Z,8.97
2022-11-15T05:08:22.065Z,8.30
2022-11-15T05:11:08.665Z,13.07
2022-11-15T05:13:55.429Z,10.93
2022-11-15T05:16:42.100Z,15.13
2022-11-15T05:19:29.712Z,14.47
2022-11-15T05:22:16.162Z,8.43
2022-11-15T05:25:03.209Z,8.90
2022-11-15T05:27:50.028Z,5.00
2022-11-15T05:30:36.428Z,7.87
2022-11-15T05:33:23.210Z,10.50
2022-11-15T05:36:17.438Z,4.93
2022-11-15T05:39:05.353Z,8.10
2022-11-15T05:41:56.443Z,6.57
2022-11-15T05:44:46.351Z,6.23
2022-11-15T05:47:33.144Z,6.63
2022-11-15T05:50:20.916Z,7.37
2022-11-15T05:53:09.418Z,8.27
2022-11-15T05:55:55.831Z,6.90
2022-11-15T05:58:42.341Z,10.27
2022-11-15T06:01:29.415Z,7.27
2022-11-15T06:04:15.577Z,6.67
2022-11-15T06:07:02.200Z,14.10
2022-11-15T06:09:50.356Z,7.27
2022-11-15T06:12:36.951Z,8.27
2022-11-15T06:15:23.398Z,7.40
2022-11-15T06:18:10.351Z,5.63
2022-11-15T06:21:00.571Z,6.63
2022-11-15T06:23:46.895Z,6.63
2022-11-15T06:26:34.804Z,8.90
2022-11-15T06:29:21.392Z,7.13
2022-11-15T06:32:08.148Z,10.73
2022-11-15T06:34:54.529Z,9.37
2022-11-15T06:37:41.600Z,8.37
2022-11-15T06:40:27.842Z,7.57
2022-11-15T06:43:16.230Z,7.37
2022-11-15T06:46:03.703Z,9.50
2022-11-15T06:48:52.662Z,10.33
2022-11-15T06:51:39.300Z,10.77
2022-11-15T06:54:26.042Z,17.67
2022-11-15T06:57:12.483Z,11.33
2022-11-15T07:00:00.315Z,11.97
2022-11-15T07:02:46.950Z,15.30
2022-11-15T07:05:33.998Z,11.57
2022-11-15T07:08:20.334Z,11.07
2022-11-15T07:11:09.233Z,8.80
2022-11-15T07:13:55.932Z,10.17
2022-11-15T07:16:44.189Z,13.00
2022-11-15T07:19:30.372Z,20.13
2022-11-15T07:22:17.065Z,9.50
2022-11-15T07:25:03.596Z,15.37
2022-11-15T07:27:56.719Z,14.10
2022-11-15T07:30:45.404Z,12.07
2022-11-15T07:33:34.063Z,11.13
2022-11-15T07:36:20.713Z,11.87
2022-11-15T07:39:07.316Z,11.80
2022-11-15T07:42:14.441Z,10.93
2022-11-15T07:45:01.043Z,6.77
2022-11-15T07:47:47.870Z,9.27
2022-11-15T07:50:35.649Z,15.63
2022-11-15T07:53:22.246Z,14.73
2022-11-15T07:56:09.339Z,14.17
2022-11-15T07:58:55.898Z,12.33
2022-11-15T08:01:42.607Z,12.93
2022-11-15T08:04:29.480Z,13.93
2022-11-15T08:07:17.844Z,9.73
2022-11-15T08:10:05.021Z,10.60
2022-11-15T08:12:59.503Z,16.87
2022-11-15T08:15:45.863Z,11.87
2022-11-15T08:18:32.470Z,13.33
2022-11-15T08:21:21.778Z,11.27
2022-11-15T08:24:11.934Z,17.40
2022-11-15T08:26:58.687Z,14.80
2022-11-15T08:29:45.315Z,11.50
2022-11-15T08:32:32.756Z,11.97
2022-11-15T08:35:21.695Z,8.33
2022-11-15T08:38:10.157Z,4.47
2022-11-15T08:41:03.154Z,4.63
2022-11-15T08:43:49.780Z,4.47
2022-11-15T08:46:36.399Z,4.10
2022-11-15T08:49:23.314Z,6.00
2022-11-15T08:52:09.667Z,4.83
2022-11-15T08:54:56.256Z,7.70
2022-11-15T08:57:44.167Z,5.40
2022-11-15T09:00:30.446Z,10.77
2022-11-15T09:03:17.349Z,10.00
2022-11-15T09:06:03.798Z,5.27
2022-11-15T09:08:50.285Z,12.70
2022-11-15T09:11:36.583Z,11.63
2022-11-15T09:14:24.324Z,8.80
2022-11-15T09:17:11.317Z,9.40
2022-11-15T09:19:57.998Z,7.63
2022-11-15T09:22:44.678Z,16.43
2022-11-15T09:25:31.368Z,9.07
2022-11-15T09:28:17.753Z,8.93
2022-11-15T09:31:07.659Z,7.83
2022-11-15T09:33:54.625Z,6.60
2022-11-15T09:36:40.834Z,9.33
2022-11-15T09:39:27.597Z,7.17
2022-11-15T09:42:32.842Z,5.87
2022-11-15T09:45:24.674Z,5.67
2022-11-15T09:48:36.513Z,5.87
2022-11-15T09:51:32.249Z,10.17
2022-11-15T09:54:45.522Z,8.93
2022-11-15T09:56:55.410Z,7.37
2022-11-15T09:59:37.257Z,9.20
2022-11-15T10:02:26.026Z,9.47
2022-11-15T10:04:56.069Z,8.07
2022-11-15T10:07:29.271Z,8.93
2022-11-15T10:10:04.297Z,10.60
2022-11-15T10:12:33.323Z,12.77
2022-11-15T10:15:05.337Z,7.70
2022-11-15T10:17:58.354Z,5.80
2022-11-15T10:20:30.122Z,5.03
2022-11-15T10:23:02.476Z,6.40
2022-11-15T10:25:32.864Z,9.77
2022-11-15T10:28:08.655Z,10.73
2022-11-15T10:30:38.326Z,8.30
2022-11-15T10:33:19.460Z,8.47
2022-11-15T10:35:48.970Z,6.93
2022-11-15T10:38:16.897Z,8.60
2022-11-15T10:40:45.925Z,9.40
2022-11-15T10:43:19.796Z,5.97
2022-11-15T10:45:49.759Z,8.43
2022-11-15T10:48:25.682Z,11.57
2022-11-15T10:50:56.990Z,6.67
2022-11-15T10:53:39.367Z,6.83
2022-11-15T10:56:10.431Z,8.23
2022-11-15T10:58:42.025Z,9.13
2022-11-15T11:01:19.036Z,5.23
2022-11-15T11:04:00.053Z,9.70
2022-11-15T11:06:30.031Z,3.17
2022-11-15T11:08:59.933Z,6.10
2022-11-15T11:11:47.192Z,6.27
2022-11-15T11:14:26.792Z,5.63
2022-11-15T11:16:57.608Z,5.90
2022-11-15T11:19:39.428Z,7.93
2022-11-15T11:22:18.733Z,6.80
2022-11-15T11:24:55.587Z,4.67
2022-11-15T11:27:37.537Z,4.30
2022-11-15T11:30:11.355Z,2.70
2022-11-15T11:32:55.181Z,6.60
2022-11-15T11:35:30.278Z,7.07
2022-11-15T11:38:11.365Z,5.47
2022-11-15T11:40:45.741Z,11.40
2022-11-15T11:43:23.688Z,5.37
2022-11-15T11:46:07.347Z,4.43
2022-11-15T11:48:43.962Z,5.63
2022-11-15T11:51:19.050Z,5.60
2022-11-15T11:53:55.856Z,5.30
2022-11-15T11:56:30.836Z,5.07
2022-11-15T11:59:04.388Z,4.70
2022-11-15T12:01:37.959Z,7.97
2022-11-15T12:04:13.146Z,11.70
2022-11-15T12:06:47.781Z,9.27
2022-11-15T12:09:23.871Z,6.47
2022-11-15T12:12:00.362Z,3.47
2022-11-15T12:14:34.704Z,4.07
2022-11-15T12:17:02.838Z,7.03
2022-11-15T12:19:31.833Z,3.60
2022-11-15T12:22:05.237Z,3.30
2022-11-15T12:24:40.908Z,4.97
2022-11-15T12:27:23.364Z,3.23
2022-11-15T12:29:58.888Z,5.43
2022-11-15T12:32:30.777Z,3.00
2022-11-15T12:35:00.092Z,2.13
2022-11-15T12:37:52.555Z,6.13
2022-11-15T12:40:34.249Z,4.33
2022-11-15T12:43:05.388Z,7.10
2022-11-15T12:45:35.614Z,6.17
2022-11-15T12:48:51.073Z,3.93
2022-11-15T12:51:21.715Z,2.53
2022-11-15T12:53:49.715Z,2.03
2022-11-15T12:56:25.541Z,5.90
2022-11-15T12:58:56.756Z,7.07
2022-11-15T13:02:01.222Z,5.20
2022-11-15T13:04:31.185Z,5.37
2022-11-15T13:07:01.902Z,2.30
2022-11-15T13:09:53.379Z,5.10
2022-11-15T13:12:59.890Z,2.00
2022-11-15T13:15:47.830Z,2.57
2022-11-15T13:18:36.069Z,2.50
2022-11-15T13:21:28.217Z,3.60
2022-11-15T13:23:57.413Z,4.43
2022-11-15T13:26:25.545Z,3.70
2022-11-15T13:28:56.936Z,4.33
2022-11-15T13:31:38.523Z,3.40
2022-11-15T13:34:49.929Z,2.77
2022-11-15T13:37:29.643Z,3.80
2022-11-15T13:40:19.717Z,3.27
2022-11-15T13:42:47.624Z,4.23
2022-11-15T13:45:19.136Z,5.10
2022-11-15T13:47:52.765Z,5.37
2022-11-15T13:50:24.446Z,2.03
2022-11-15T13:52:53.594Z,4.50
2022-11-15T13:55:24.019Z,4.70
2022-11-15T13:57:55.654Z,3.07
2022-11-15T14:00:34.546Z,3.90
2022-11-15T14:03:10.482Z,5.10
2022-11-15T14:05:39.460Z,3.23
2022-11-15T14:08:24.795Z,3.77
2022-11-15T14:11:09.799Z,3.17
2022-11-15T14:13:38.041Z,5.60
2022-11-15T14:16:18.854Z,4.47
2022-11-15T14:18:49.363Z,2.43
2022-11-15T14:21:17.799Z,4.53
2022-11-15T14:23:46.625Z,4.27
2022-11-15T14:26:30.260Z,8.37
2022-11-15T14:28:58.882Z,5.13
2022-11-15T14:31:28.215Z,4.27
2022-11-15T14:33:56.277Z,5.83
2022-11-15T14:36:24.307Z,5.23
2022-11-15T14:38:52.289Z,5.33
2022-11-15T14:41:23.001Z,8.17
2022-11-15T14:43:51.141Z,10.40
2022-11-15T14:46:19.710Z,5.70
2022-11-15T14:48:49.121Z,3.47
2022-11-15T14:51:19.918Z,5.83
2022-11-15T14:53:48.794Z,4.90
2022-11-15T14:56:17.728Z,3.63
2022-11-15T14:58:45.846Z,8.53
2022-11-15T15:01:18.559Z,11.23
2022-11-15T15:03:48.087Z,5.17
2022-11-15T15:06:18.257Z,9.83
2022-11-15T15:08:47.000Z,5.13
2022-11-15T15:11:25.247Z,5.37
2022-11-15T15:13:54.126Z,4.83
2022-11-15T15:16:22.725Z,6.17
2022-11-15T15:18:52.522Z,6.07
2022-11-15T15:21:23.158Z,8.27
2022-11-15T15:23:51.276Z,4.53
2022-11-15T15:26:19.728Z,5.80
2022-11-15T15:28:49.529Z,7.93
2022-11-15T15:31:18.022Z,8.33
2022-11-15T15:33:46.133Z,12.03
2022-11-15T15:36:18.898Z,12.97
2022-11-15T15:38:47.835Z,8.90
2022-11-15T15:41:17.382Z,9.07
2022-11-15T15:43:45.645Z,7.23
2022-11-15T15:46:16.051Z,6.13
2022-11-15T15:48:44.368Z,6.23
2022-11-15T15:51:19.638Z,6.57
2022-11-15T15:53:51.689Z,8.73
2022-11-15T15:56:19.681Z,8.00
2022-11-15T15:58:47.659Z,7.83
2022-11-15T16:01:15.578Z,6.27
2022-11-15T16:03:43.585Z,7.27
2022-11-15T16:06:37.512Z,8.73
2022-11-15T16:09:15.772Z,8.60
2022-11-15T16:11:46.437Z,7.30
2022-11-15T16:14:14.587Z,9.10
2022-11-15T16:16:42.557Z,7.70
2022-11-15T16:19:12.433Z,8.33
2022-11-15T16:21:40.379Z,9.97
2022-11-15T16:24:09.614Z,8.83
2022-11-15T16:26:38.924Z,8.17
2022-11-15T16:29:07.982Z,6.03
2022-11-15T16:31:36.015Z,7.63
2022-11-15T16:34:04.058Z,7.70
2022-11-15T16:36:35.005Z,7.90
2022-11-15T16:39:05.279Z,9.37
2022-11-15T16:41:34.942Z,6.23
2022-11-15T16:44:02.981Z,5.90
2022-11-15T16:46:32.278Z,6.10
2022-11-15T16:49:00.270Z,6.40
2022-11-15T16:51:28.306Z,6.47
2022-11-15T16:53:56.239Z,11.53
2022-11-15T16:56:26.753Z,8.27
2022-11-15T16:58:58.657Z,13.67
2022-11-15T17:01:29.026Z,12.17
2022-11-15T17:03:57.583Z,9.40
2022-11-15T17:06:27.309Z,8.10
2022-11-15T17:08:56.622Z,7.20
2022-11-15T17:11:24.655Z,9.07
2022-11-15T17:13:53.118Z,9.23
2022-11-15T17:16:22.475Z,8.87
2022-11-15T17:18:52.478Z,13.97
2022-11-15T17:21:22.568Z,15.97
2022-11-15T17:23:50.663Z,18.77
2022-11-15T17:26:29.565Z,17.97
2022-11-15T17:29:00.903Z,12.93
2022-11-15T17:31:33.773Z,10.23
2022-11-15T17:34:02.359Z,10.50
2022-11-15T17:36:30.507Z,10.33
2022-11-15T17:39:00.025Z,12.67
2022-11-15T17:41:28.909Z,20.67
2022-11-15T17:43:59.226Z,22.27
2022-11-15T17:46:28.180Z,15.87
2022-11-15T17:48:58.615Z,13.90
2022-11-15T17:51:26.941Z,17.00
2022-11-15T17:53:56.535Z,37.70
2022-11-15T17:56:26.606Z,29.17
2022-11-15T17:58:56.078Z,33.73
2022-11-15T18:01:25.696Z,21.10
2022-11-15T18:03:54.622Z,21.80
2022-11-15T18:06:25.258Z,27.63
2022-11-15T18:08:55.978Z,28.20
2022-11-15T18:11:25.720Z,20.90
2022-11-15T18:13:56.757Z,15.73
2022-11-15T18:16:27.235Z,18.10
2022-11-15T18:18:56.101Z,18.17
2022-11-15T18:21:27.361Z,18.87
2022-11-15T18:23:57.173Z,22.20
2022-11-15T18:26:27.851Z,24.40
2022-11-15T18:28:57.670Z,23.27
2022-11-15T18:31:28.764Z,24.50
2022-11-15T18:33:57.381Z,20.17
2022-11-15T18:36:28.152Z,58.17
2022-11-15T18:38:56.806Z,96.73
2022-11-15T18:41:28.321Z,74.27
2022-11-15T18:43:56.759Z,43.70
2022-11-15T18:46:26.327Z,35.00
2022-11-15T18:48:55.590Z,34.83
2022-11-15T18:51:25.512Z,19.63
2022-11-15T18:53:56.100Z,17.93
2022-11-15T18:56:25.664Z,14.20
2022-11-15T18:58:55.675Z,12.97
2022-11-15T19:01:25.813Z,13.33
2022-11-15T19:03:55.259Z,16.13
2022-11-15T19:06:25.062Z,14.23
2022-11-15T19:08:56.394Z,15.67
2022-11-15T19:11:28.744Z,16.30
2022-11-15T19:13:59.607Z,18.40
2022-11-15T19:16:29.172Z,19.70
2022-11-15T19:18:58.470Z,19.27
2022-11-15T19:21:27.460Z,17.30
2022-11-15T19:23:56.762Z,18.07
2022-11-15T19:26:25.623Z,16.53
2022-11-15T19:28:55.505Z,16.30
2022-11-15T19:31:25.194Z,15.67
2022-11-15T19:33:54.490Z,15.73
2022-11-15T19:36:24.138Z,13.43
2022-11-15T19:38:52.135Z,12.23
2022-11-15T19:41:23.316Z,16.03
2022-11-15T19:43:52.337Z,10.67
2022-11-15T19:46:23.501Z,15.03
2022-11-15T19:48:52.287Z,15.83
2022-11-15T19:51:22.608Z,17.17
2022-11-15T19:53:51.361Z,14.17
2022-11-15T19:56:24.746Z,14.67
2022-11-15T19:58:56.020Z,11.33
2022-11-15T20:01:26.037Z,12.13
2022-11-15T20:03:55.881Z,10.17
2022-11-15T20:06:25.541Z,12.43
2022-11-15T20:08:53.811Z,17.33
2022-11-15T20:11:23.556Z,15.50
2022-11-15T20:13:51.855Z,15.20
2022-11-15T20:16:21.853Z,15.73
2022-11-15T20:18:51.346Z,17.93
2022-11-15T20:21:20.685Z,19.80
2022-11-15T20:23:51.649Z,23.87
2022-11-15T20:26:20.485Z,23.47
2022-11-15T20:28:50.152Z,21.13
2022-11-15T20:31:18.468Z,18.43
2022-11-15T20:33:46.658Z,16.40
2022-11-15T20:36:18.000Z,14.07
2022-11-15T20:38:48.890Z,12.13
2022-11-15T20:41:17.570Z,13.67
2022-11-15T20:43:45.815Z,10.37
2022-11-15T20:46:15.608Z,16.27
2022-11-15T20:48:47.999Z,17.50
2022-11-15T20:51:24.133Z,13.03
2022-11-15T20:53:52.804Z,12.23
2022-11-15T20:56:28.453Z,15.37
2022-11-15T20:58:56.568Z,14.17
2022-11-15T21:01:29.213Z,14.50
2022-11-15T21:03:58.067Z,16.07
2022-11-15T21:06:30.117Z,20.00
2022-11-15T21:09:15.804Z,17.13
2022-11-15T21:12:01.745Z,20.50
2022-11-15T21:14:30.010Z,17.10
2022-11-15T21:16:59.484Z,21.30
2022-11-15T21:19:32.587Z,19.63
2022-11-15T21:22:02.868Z,24.07
2022-11-15T21:24:31.098Z,21.13
2022-11-15T21:26:59.268Z,24.97
2022-11-15T21:29:28.538Z,20.73
2022-11-15T21:31:56.590Z,18.90
2022-11-15T21:34:25.840Z,22.60
2022-11-15T21:36:54.068Z,25.93
2022-11-15T21:39:22.214Z,22.53
2022-11-15T21:41:50.122Z,18.53
2022-11-15T21:44:18.144Z,20.77
2022-11-15T21:46:46.041Z,18.80
2022-11-15T21:49:14.070Z,15.87
2022-11-15T21:51:43.615Z,17.90
2022-11-15T21:54:11.880Z,14.63
2022-11-15T21:56:39.877Z,13.90
2022-11-15T21:59:07.753Z,17.73
2022-11-15T22:01:53.486Z,13.33
2022-11-15T22:04:23.904Z,15.13
2022-11-15T22:06:53.352Z,12.77
2022-11-15T22:09:21.253Z,13.30
2022-11-15T22:11:49.259Z,10.63
2022-11-15T22:14:17.589Z,15.23
2022-11-15T22:16:45.627Z,12.33
2022-11-15T22:19:13.705Z,13.27
2022-11-15T22:21:41.844Z,11.63
2022-11-15T22:24:11.214Z,12.07
2022-11-15T22:26:39.275Z,15.50
2022-11-15T22:29:07.288Z,14.63
2022-11-15T22:31:35.309Z,16.57
2022-11-15T22:34:03.368Z,15.20
2022-11-15T22:36:46.918Z,15.70
2022-11-15T22:39:16.647Z,14.10
2022-11-15T22:41:44.624Z,17.20
2022-11-15T22:44:12.656Z,10.87
2022-11-15T22:46:40.562Z,13.23
2022-11-15T22:49:09.227Z,17.07
2022-11-15T22:51:38.953Z,13.33
2022-11-15T22:54:07.653Z,13.33
2022-11-15T22:56:37.106Z,13.63
2022-11-15T22:59:05.158Z,14.30
2022-11-15T23:01:33.293Z,12.13
2022-11-15T23:04:01.421Z,15.33
2022-11-15T23:06:29.485Z,15.20
2022-11-15T23:08:57.516Z,13.13
2022-11-15T23:11:43.269Z,12.43
2022-11-15T23:14:12.671Z,15.57
2022-11-15T23:16:43.634Z,12.37
2022-11-15T23:19:15.935Z,12.00
2022-11-15T23:22:08.577Z,12.23
2022-11-15T23:24:36.559Z,13.77
2022-11-15T23:27:07.219Z,11.03
2022-11-15T23:29:58.374Z,11.13
2022-11-15T23:32:43.730Z,14.07
2022-11-15T23:35:11.918Z,11.60
2022-11-15T23:37:39.867Z,10.03
2022-11-15T23:40:09.467Z,10.70
2022-11-15T23:42:37.455Z,10.20
2022-11-15T23:45:08.285Z,12.93
2022-11-15T23:47:36.403Z,9.37
2022-11-15T23:50:05.543Z,10.60
2022-11-15T23:52:33.666Z,12.10
2022-11-15T23:55:01.659Z,16.97
2022-11-15T23:57:29.799Z,9.87
